Αρχική σελίδα
METAR-TAF:

METAR-TAF

Αεροδρόμια :

Ταϊτή, Γαλλική Πολυνησία

γεωγραφικό πλάτος: 17-33S, γεωγραφικό μήκος: 149-37W, υψόμετρο: 2 μ

Παρών καιρός

Η αναφορά έγινε 12 λεπτά πριν, στις 03:30 UTC
Άνεμος 4 kt από , μεταβλητός μεταξύ Δ και Β/BΔ
Θερμοκρασία 27°C
Υγρασία 70%
Πίεση 1014 hPa
Ορατότητα 10 χλμ και άνω
Λίγα νέφη σε ύψος 2000 πόδια
Όμβροι σε κοντινή απόσταση

METAR: NTAA 200330Z 31004KT 280V340 9999 VCSH FEW020 27/21 Q1014 NOSIG

Χρόνος: 17:42 (03:42 UTC)

Πρόγνωση Καιρού

Η αναφορά έγινε 4 ώρες και 42 λεπτά πριν, στις 23:00 UTC
Η πρόγνωση ισχύει από τις 20 στις 00 UTC έως τις 21 στις 06 UTC
Άνεμος 3 kt από μεταβλητές κατευθύνσεις
Ορατότητα 10 χλμ και άνω
Λίγα νέφη σε ύψος 2300 πόδια
Προσωρινά
από 20 στις 00 UTC έως τις 20 στις 02 UTC
Άνεμος 12 kt από Δ/ΝΔ

TAF: NTAA 192300Z 2000/2106 VRB03KT 9999 FEW023 TEMPO 2000/2002 24012KT

Μετεωρολογικές αναφορές και προγνώσεις για περισσότερα από 4000 αεροδρόμια (δελτία METAR και TAF).

Οι διαθέσιμοι σταθμοί απεικονίζονται στο χάρτη με κίτρινες και κόκκινες κουκκίδες.

Μετακινήστε το ποντίκι πάνω από τις κουκκίδες για να δείτε το όνομα του σταθμού.

Στη συνέχεια, κάντε κλικ για να δείτε τις μετεωρολογικές αναφορές και τις προγνώσεις καιρού.

Για να αλλάξετε το χάρτη: κάντε κλικ στα πράσινα κουμπιά με τον μαύρο σταυρό για να ζουμάρετε, στο πράσινο κουμπί με την παύλα για να αφαιρέσετε το ζουμ ή στα πράσινα βέλη για να αντιπαραβάλλετε χάρτες.


METAR-TAF: